Time;durP1;ratioP1;P1;durP2;ratioP2;P2;SDS_P1;SDS_P2;PMS_P1;PMS_P2;Temp;Humidity;BMP_temperature;BMP_pressure;BME280_temperature;BME280_humidity;BME280_pressure;Samples;Min_cycle;Max_cycle;Signal;HPM_P1;HPM_P2
2024/04/11 00:00:01;;;;;;;2.70;1.10;;;;;20.20;101849.00;;;;2217771;26;20704;-57
2024/04/11 00:01:01;;;;;;;2.20;0.83;;;;;20.20;101892.00;;;;2208286;26;20301;-58
2024/04/11 00:02:02;;;;;;;3.87;0.97;;;;;20.20;101850.00;;;;2217774;26;20874;-57
2024/04/11 00:03:02;;;;;;;2.00;0.70;;;;;20.20;101850.00;;;;2219832;26;20247;-58
2024/04/11 00:04:02;;;;;;;2.77;1.23;;;;;20.20;101853.00;;;;2224880;26;20646;-57
2024/04/11 00:05:03;;;;;;;3.00;1.10;;;;;20.20;101855.00;;;;2216827;26;20301;-57
2024/04/11 00:06:04;;;;;;;2.83;1.00;;;;;20.20;101852.00;;;;2214885;26;20300;-57
2024/04/11 00:07:04;;;;;;;2.37;1.00;;;;;20.20;101863.00;;;;2210875;26;21422;-58
2024/04/11 00:08:05;;;;;;;1.97;1.00;;;;;20.20;101856.00;;;;2225284;26;20265;-58
2024/04/11 00:09:05;;;;;;;2.67;1.23;;;;;20.20;101860.00;;;;2222157;26;20247;-58
2024/04/11 00:10:06;;;;;;;2.30;1.07;;;;;20.20;101857.00;;;;2225918;26;20614;-59
2024/04/11 00:11:06;;;;;;;2.10;0.90;;;;;20.20;101852.00;;;;2207783;26;20309;-58
2024/04/11 00:12:07;;;;;;;1.80;0.70;;;;;20.20;101854.00;;;;2219119;26;20254;-58
2024/04/11 00:13:07;;;;;;;1.80;0.70;;;;;20.20;101845.00;;;;2218754;26;20344;-57
2024/04/11 00:14:07;;;;;;;2.37;1.07;;;;;20.20;101848.00;;;;2231652;26;20281;-58
2024/04/11 00:15:08;;;;;;;3.43;1.33;;;;;20.20;101854.00;;;;2227734;26;20293;-58
2024/04/11 00:16:09;;;;;;;2.07;1.00;;;;;20.20;101870.00;;;;2221815;26;20901;-57
2024/04/11 00:17:09;;;;;;;4.30;1.10;;;;;20.20;101856.00;;;;2219010;26;20255;-57
2024/04/11 00:18:10;;;;;;;2.10;0.80;;;;;20.20;101856.00;;;;2225183;26;20293;-57
2024/04/11 00:19:10;;;;;;;3.57;0.90;;;;;20.20;101856.00;;;;2230585;26;20251;-57
2024/04/11 00:20:10;;;;;;;2.30;1.00;;;;;20.20;101859.00;;;;2227597;26;20369;-57
2024/04/11 00:21:11;;;;;;;3.20;1.03;;;;;20.20;101855.00;;;;2222403;26;20288;-58
2024/04/11 00:22:11;;;;;;;2.77;1.33;;;;;20.20;101858.00;;;;2217643;26;20247;-58
2024/04/11 00:23:11;;;;;;;2.77;1.03;;;;;20.20;101852.00;;;;2229134;26;20285;-58
2024/04/11 00:24:12;;;;;;;4.20;0.90;;;;;20.20;101858.00;;;;2219993;26;21071;-57
2024/04/11 00:25:13;;;;;;;3.00;1.13;;;;;20.20;101860.00;;;;2218638;26;21197;-58
2024/04/11 00:26:13;;;;;;;2.35;0.80;;;;;20.20;101860.00;;;;2218319;26;20770;-57
2024/04/11 00:27:13;;;;;;;1.73;0.80;;;;;20.10;101849.00;;;;2218930;26;20255;-58
2024/04/11 00:28:13;;;;;;;2.07;0.87;;;;;20.20;101858.00;;;;2225470;26;20255;-58
2024/04/11 00:29:14;;;;;;;2.77;1.13;;;;;20.20;101859.00;;;;2218269;26;20297;-57
2024/04/11 00:30:14;;;;;;;2.33;1.00;;;;;20.20;101859.00;;;;2219109;26;20251;-58
2024/04/11 00:31:15;;;;;;;2.97;1.00;;;;;20.20;101859.00;;;;2209677;26;20332;-57
2024/04/11 00:32:15;;;;;;;2.00;0.90;;;;;20.20;101859.00;;;;2217907;26;20306;-57
2024/04/11 00:33:16;;;;;;;2.13;0.80;;;;;20.20;101862.00;;;;2218711;26;20256;-58
2024/04/11 00:34:22;;;;;;;3.10;1.00;;;;;20.20;101859.00;;;;2219055;26;20298;-57
2024/04/11 00:35:23;;;;;;;2.08;0.88;;;;;20.20;101852.00;;;;2231931;26;20300;-58
2024/04/11 00:36:24;;;;;;;2.40;0.90;;;;;20.20;101863.00;;;;2212479;26;20255;-57
2024/04/11 00:37:25;;;;;;;2.50;1.10;;;;;20.20;101853.00;;;;2218114;26;20263;-57
2024/04/11 00:38:27;;;;;;;2.70;0.97;;;;;20.20;101855.00;;;;2219089;26;20477;-57
2024/04/11 00:39:28;;;;;;;2.45;1.02;;;;;20.20;101849.00;;;;2217828;26;20482;-57
2024/04/11 00:40:28;;;;;;;2.65;1.02;;;;;20.20;101865.00;;;;2220540;26;20664;-58
2024/04/11 00:41:30;;;;;;;2.10;0.97;;;;;20.20;101856.00;;;;2214149;26;20274;-57
2024/04/11 00:42:30;;;;;;;2.13;0.95;;;;;20.20;101851.00;;;;2230704;26;20265;-58
2024/04/11 00:43:30;;;;;;;2.50;0.60;;;;;20.20;101856.00;;;;2227129;26;20305;-57
2024/04/11 00:44:32;;;;;;;2.20;0.90;;;;;20.20;101856.00;;;;2218903;26;20356;-57
2024/04/11 00:45:32;;;;;;;3.30;1.10;;;;;20.20;101853.00;;;;2221984;26;20250;-57
2024/04/11 00:46:32;;;;;;;2.43;0.90;;;;;20.20;101860.00;;;;2193088;26;21444;-57
2024/04/11 00:47:33;;;;;;;2.47;1.00;;;;;20.20;101855.00;;;;2220264;26;20683;-58
2024/04/11 00:48:33;;;;;;;2.80;1.00;;;;;20.20;101859.00;;;;2228938;26;20626;-57
2024/04/11 00:49:34;;;;;;;2.40;1.10;;;;;20.20;101862.00;;;;2224641;26;20668;-58
2024/04/11 00:50:34;;;;;;;2.03;0.80;;;;;20.20;101852.00;;;;2229745;26;20900;-57
2024/04/11 00:51:35;;;;;;;2.20;0.80;;;;;20.10;101848.00;;;;2206171;26;20489;-57
2024/04/11 00:52:36;;;;;;;2.50;1.10;;;;;20.20;101855.00;;;;2201569;26;20252;-57
2024/04/11 00:53:36;;;;;;;3.53;1.10;;;;;20.10;101858.00;;;;2208113;26;20291;-57
2024/04/11 00:54:36;;;;;;;2.60;0.90;;;;;20.20;101859.00;;;;2221330;26;20611;-57
2024/04/11 00:55:37;;;;;;;3.30;1.00;;;;;20.20;101858.00;;;;2217010;26;20286;-59
2024/04/11 00:56:40;;;;;;;2.23;0.90;;;;;20.20;101856.00;;;;2210570;26;20840;-57
2024/04/11 00:57:40;;;;;;;2.60;1.05;;;;;20.20;101860.00;;;;2228151;26;20300;-57
2024/04/11 00:58:41;;;;;;;2.50;1.03;;;;;20.20;101870.00;;;;2226571;26;20302;-58
2024/04/11 00:59:41;;;;;;;1.90;0.80;;;;;20.20;101857.00;;;;2217502;26;20301;-58
2024/04/11 01:00:42;;;;;;;2.10;1.00;;;;;20.20;101859.00;;;;2204434;26;20243;-58
2024/04/11 01:01:44;;;;;;;2.87;1.23;;;;;20.20;101856.00;;;;2218935;26;20357;-58
2024/04/11 01:02:44;;;;;;;2.85;1.13;;;;;20.20;101861.00;;;;2231233;26;20718;-58
2024/04/11 01:03:45;;;;;;;2.47;1.00;;;;;20.20;101864.00;;;;2223786;26;20352;-58
2024/04/11 01:04:45;;;;;;;2.17;0.90;;;;;20.20;101861.00;;;;2215490;26;20343;-57
2024/04/11 01:05:46;;;;;;;2.20;0.87;;;;;20.20;101858.00;;;;2192875;26;20252;-57
2024/04/11 01:08:09;;;;;;;2.13;0.88;;;;;20.10;101864.00;;;;2218646;26;20585;-57
2024/04/11 01:09:19;;;;;;;2.10;0.80;;;;;20.20;101869.00;;;;2218185;26;20254;-57
2024/04/11 01:10:21;;;;;;;3.25;1.10;;;;;20.20;101854.00;;;;2218577;26;20357;-58
2024/04/11 01:11:22;;;;;;;3.10;0.98;;;;;20.20;101864.00;;;;2209883;26;20296;-58
2024/04/11 01:12:23;;;;;;;2.13;0.90;;;;;20.20;101864.00;;;;2218246;26;20290;-57
2024/04/11 01:13:23;;;;;;;2.40;0.93;;;;;20.10;101854.00;;;;2230561;26;20250;-57
2024/04/11 01:14:24;;;;;;;2.50;0.80;;;;;20.10;101857.00;;;;2230068;26;20246;-57
2024/04/11 01:15:24;;;;;;;1.93;0.83;;;;;20.10;101860.00;;;;2218779;26;20255;-58
2024/04/11 01:16:25;;;;;;;2.00;0.93;;;;;20.10;101863.00;;;;2209641;26;20592;-57
2024/04/11 01:17:26;;;;;;;2.30;0.90;;;;;20.10;101858.00;;;;2218506;26;20263;-57
2024/04/11 01:18:26;;;;;;;2.37;0.93;;;;;20.10;101857.00;;;;2218568;26;20570;-57
2024/04/11 01:19:26;;;;;;;2.67;1.00;;;;;20.10;101860.00;;;;2231313;26;20250;-57
2024/04/11 01:20:27;;;;;;;2.43;0.97;;;;;20.20;101857.00;;;;2229419;26;20265;-57
2024/04/11 01:21:27;;;;;;;2.77;1.07;;;;;20.10;101854.00;;;;2220683;26;20761;-57
2024/04/11 01:22:27;;;;;;;2.47;0.90;;;;;20.10;101851.00;;;;2230311;26;20292;-57
2024/04/11 01:23:28;;;;;;;3.73;1.10;;;;;20.10;101845.00;;;;2219334;26;20297;-58
2024/04/11 01:24:28;;;;;;;2.57;0.90;;;;;20.10;101851.00;;;;2218631;26;20277;-57
2024/04/11 01:25:29;;;;;;;3.60;1.20;;;;;20.20;101852.00;;;;2218969;26;20356;-57
2024/04/11 01:26:29;;;;;;;3.03;0.77;;;;;20.10;101853.00;;;;2219590;26;20301;-57
2024/04/11 01:27:30;;;;;;;3.33;1.00;;;;;20.10;101848.00;;;;2218245;26;20536;-57
2024/04/11 01:28:31;;;;;;;2.00;0.90;;;;;20.10;101848.00;;;;2224727;26;20768;-57
2024/04/11 01:29:31;;;;;;;2.00;0.90;;;;;20.10;101849.00;;;;2218584;26;20315;-57
2024/04/11 01:30:32;;;;;;;2.73;0.90;;;;;20.10;101851.00;;;;2218516;26;20775;-58
2024/04/11 01:31:36;;;;;;;2.43;1.03;;;;;20.10;101844.00;;;;2207759;26;20754;-57
2024/04/11 01:32:36;;;;;;;2.53;1.00;;;;;20.10;101855.00;;;;2217566;26;20525;-57
2024/04/11 01:33:38;;;;;;;2.43;0.90;;;;;20.10;101847.00;;;;2231869;26;20255;-58
2024/04/11 01:34:39;;;;;;;2.58;1.00;;;;;20.10;101850.00;;;;2227794;26;20310;-57
2024/04/11 01:35:39;;;;;;;2.42;1.10;;;;;20.10;101850.00;;;;2214040;26;20372;-57
2024/04/11 01:36:39;;;;;;;2.67;1.00;;;;;20.10;101846.00;;;;2215671;26;20337;-58
2024/04/11 01:37:40;;;;;;;2.47;0.90;;;;;20.10;101853.00;;;;2221461;26;20258;-57
2024/04/11 01:38:41;;;;;;;3.77;1.10;;;;;20.10;101853.00;;;;2228869;26;20395;-58
2024/04/11 01:39:41;;;;;;;2.60;1.10;;;;;20.10;101854.00;;;;2218609;26;20307;-57
2024/04/11 01:40:46;;;;;;;3.07;1.07;;;;;20.10;101858.00;;;;2218355;26;20595;-58
2024/04/11 01:41:46;;;;;;;2.05;1.08;;;;;20.10;101855.00;;;;2218698;26;21217;-57
2024/04/11 01:42:47;;;;;;;2.10;0.90;;;;;20.10;101852.00;;;;2225467;26;20254;-57
2024/04/11 01:43:47;;;;;;;3.00;1.07;;;;;19.70;101849.00;;;;2227212;26;20310;-58
2024/04/11 01:44:47;;;;;;;2.47;0.83;;;;;20.10;101861.00;;;;2219419;26;20251;-57
2024/04/11 01:45:48;;;;;;;2.50;1.20;;;;;20.20;101861.00;;;;2216361;26;20259;-57
2024/04/11 01:46:49;;;;;;;2.20;1.00;;;;;20.10;101852.00;;;;2218711;26;20290;-57
2024/04/11 01:47:49;;;;;;;3.27;0.93;;;;;20.10;101865.00;;;;2222273;26;20251;-57
2024/04/11 01:48:49;;;;;;;2.70;0.90;;;;;20.10;101862.00;;;;2218679;26;20481;-57
2024/04/11 01:49:50;;;;;;;2.20;1.00;;;;;20.10;101865.00;;;;2224527;26;20301;-57
2024/04/11 01:50:53;;;;;;;3.40;0.90;;;;;20.10;101858.00;;;;2214291;26;20247;-58
2024/04/11 01:51:53;;;;;;;2.05;0.80;;;;;20.10;101854.00;;;;2218352;26;20728;-57
2024/04/11 01:52:55;;;;;;;3.30;0.93;;;;;20.10;101855.00;;;;2220140;26;20294;-58
2024/04/11 01:53:55;;;;;;;2.97;1.10;;;;;20.10;101856.00;;;;2218573;26;20255;-58
2024/04/11 01:55:00;;;;;;;2.20;1.00;;;;;20.10;101861.00;;;;2227024;26;20253;-57
2024/04/11 01:56:00;;;;;;;3.53;1.20;;;;;20.10;101863.00;;;;2211698;26;20357;-58
2024/04/11 01:57:00;;;;;;;3.17;0.90;;;;;20.10;101870.00;;;;2221457;26;20342;-58
2024/04/11 01:58:02;;;;;;;1.93;0.90;;;;;20.10;101865.00;;;;2227325;26;20242;-57
2024/04/11 01:59:06;;;;;;;2.42;0.90;;;;;20.10;101869.00;;;;2224177;26;20254;-57
2024/04/11 02:00:12;;;;;;;2.85;1.10;;;;;20.10;101863.00;;;;2228259;26;20269;-57
2024/04/11 02:01:19;;;;;;;2.75;1.15;;;;;20.10;101862.00;;;;2218579;26;20251;-57
2024/04/11 02:02:19;;;;;;;2.08;1.10;;;;;20.10;101870.00;;;;2217217;26;20333;-58
2024/04/11 02:03:22;;;;;;;2.93;1.27;;;;;20.10;101870.00;;;;2218780;26;20252;-58
2024/04/11 02:04:30;;;;;;;2.63;1.10;;;;;20.10;101872.00;;;;2219777;26;20259;-57
2024/04/11 02:05:31;;;;;;;3.92;1.08;;;;;20.10;101862.00;;;;2218386;26;20298;-57
2024/04/11 02:06:36;;;;;;;2.00;1.00;;;;;20.10;101872.00;;;;2204381;26;20704;-57
2024/04/11 02:07:37;;;;;;;2.30;0.98;;;;;20.10;101875.00;;;;2231623;26;20379;-57
2024/04/11 02:08:38;;;;;;;3.70;1.20;;;;;20.10;101872.00;;;;2228083;26;20238;-58
2024/04/11 02:09:38;;;;;;;2.00;0.80;;;;;20.10;101876.00;;;;2218628;26;20370;-58
2024/04/11 02:10:39;;;;;;;2.00;0.90;;;;;20.10;101770.00;;;;2217756;26;20594;-58
2024/04/11 02:11:42;;;;;;;2.67;0.90;;;;;20.10;101875.00;;;;2213993;26;20630;-59
2024/04/11 02:12:42;;;;;;;2.83;1.17;;;;;20.10;101884.00;;;;2217336;26;20327;-57
2024/04/11 02:13:43;;;;;;;2.20;1.00;;;;;20.10;101879.00;;;;2225986;26;20288;-58
2024/04/11 02:14:46;;;;;;;2.00;0.90;;;;;20.10;101889.00;;;;2231777;26;20258;-57
2024/04/11 02:15:46;;;;;;;1.88;0.70;;;;;20.10;101878.00;;;;2209517;26;21097;-57
2024/04/11 02:16:46;;;;;;;2.53;0.80;;;;;20.10;101883.00;;;;2226525;26;20255;-57
2024/04/11 02:17:47;;;;;;;2.10;1.00;;;;;20.10;101879.00;;;;2217713;26;20255;-57
2024/04/11 02:18:47;;;;;;;3.10;1.07;;;;;20.10;101879.00;;;;2218396;26;20278;-57
2024/04/11 02:19:48;;;;;;;2.17;0.97;;;;;20.10;101875.00;;;;2220704;26;20247;-58
2024/04/11 02:20:53;;;;;;;1.85;0.80;;;;;20.10;101879.00;;;;2213180;26;20298;-57
2024/04/11 02:21:53;;;;;;;2.92;1.20;;;;;20.10;101883.00;;;;2224571;26;20250;-57
2024/04/11 02:22:53;;;;;;;3.40;1.30;;;;;20.10;101873.00;;;;2226699;26;21314;-58
2024/04/11 02:23:55;;;;;;;2.30;1.00;;;;;20.10;101877.00;;;;2217187;26;20281;-57
2024/04/11 02:24:56;;;;;;;3.85;1.10;;;;;20.10;101871.00;;;;2223910;26;21207;-58
2024/04/11 02:25:57;;;;;;;2.70;0.83;;;;;20.10;101876.00;;;;2211584;26;20349;-57
2024/04/11 02:26:57;;;;;;;1.60;0.70;;;;;20.10;101874.00;;;;2224966;26;20250;-58
2024/04/11 02:27:58;;;;;;;2.30;0.73;;;;;20.10;101873.00;;;;2226274;26;20485;-57
2024/04/11 02:28:58;;;;;;;2.27;0.97;;;;;20.10;101863.00;;;;2218194;26;20667;-57
2024/04/11 02:29:59;;;;;;;3.90;0.97;;;;;20.10;101859.00;;;;2218681;26;20737;-57
2024/04/11 02:30:59;;;;;;;2.80;1.10;;;;;20.10;101864.00;;;;2215341;26;20235;-57
2024/04/11 02:32:00;;;;;;;2.30;1.17;;;;;20.10;101894.00;;;;2218230;26;20633;-57
2024/04/11 02:33:00;;;;;;;2.80;0.90;;;;;20.10;101861.00;;;;2220372;26;20576;-58
2024/04/11 02:34:00;;;;;;;2.23;1.10;;;;;20.10;101858.00;;;;2218245;26;20259;-57
2024/04/11 02:35:05;;;;;;;2.07;0.97;;;;;20.10;101856.00;;;;2224708;26;20409;-57
2024/04/11 02:36:08;;;;;;;3.20;1.38;;;;;20.10;101862.00;;;;2218074;26;20318;-58
2024/04/11 02:37:08;;;;;;;1.70;0.70;;;;;20.10;101851.00;;;;2217803;26;20257;-58
2024/04/11 02:38:09;;;;;;;1.73;0.77;;;;;20.10;101873.00;;;;2222136;26;20696;-57
2024/04/11 02:39:12;;;;;;;2.17;0.83;;;;;20.10;101855.00;;;;2217843;26;20598;-58
2024/04/11 02:40:12;;;;;;;2.20;0.90;;;;;20.10;101859.00;;;;2217916;26;20298;-58
2024/04/11 02:41:13;;;;;;;2.63;0.80;;;;;20.10;101851.00;;;;2221989;26;20706;-58
2024/04/11 02:42:13;;;;;;;2.07;0.87;;;;;20.10;101861.00;;;;2244428;26;20290;-58
2024/04/11 02:43:13;;;;;;;2.53;0.90;;;;;20.10;101851.00;;;;2230946;26;20289;-58
2024/04/11 02:44:19;;;;;;;2.70;1.07;;;;;20.10;101856.00;;;;2226237;26;20251;-57
2024/04/11 02:45:21;;;;;;;1.95;0.82;;;;;20.10;101852.00;;;;2218429;26;20255;-57
2024/04/11 02:46:22;;;;;;;2.47;0.98;;;;;20.10;101861.00;;;;2208347;26;20758;-57
2024/04/11 02:47:23;;;;;;;2.57;1.10;;;;;20.10;101852.00;;;;2217781;26;20255;-58
2024/04/11 02:48:26;;;;;;;2.07;0.90;;;;;20.00;101859.00;;;;2231264;26;20480;-57
2024/04/11 02:49:28;;;;;;;2.90;0.77;;;;;20.10;101861.00;;;;2225670;26;20279;-58
2024/04/11 02:50:29;;;;;;;1.88;0.90;;;;;20.10;101858.00;;;;2217675;26;20259;-58
2024/04/11 02:51:29;;;;;;;1.90;0.80;;;;;20.10;101861.00;;;;2197375;26;20259;-58
2024/04/11 02:52:30;;;;;;;3.03;1.07;;;;;20.10;101851.00;;;;2222758;26;20701;-58
2024/04/11 02:53:30;;;;;;;2.00;0.80;;;;;20.10;101854.00;;;;2218255;26;20267;-57
2024/04/11 02:54:30;;;;;;;2.30;0.80;;;;;20.10;101848.00;;;;2224815;26;20285;-58
2024/04/11 02:55:34;;;;;;;1.87;0.90;;;;;20.10;101842.00;;;;2220604;26;20252;-57
2024/04/11 02:56:34;;;;;;;3.17;0.80;;;;;20.10;101850.00;;;;2216611;26;20258;-57
2024/04/11 02:57:35;;;;;;;2.83;1.10;;;;;20.10;101856.00;;;;2231875;26;20254;-58
2024/04/11 02:58:36;;;;;;;2.03;0.82;;;;;20.10;101853.00;;;;2230772;26;20374;-57
2024/04/11 02:59:36;;;;;;;1.90;0.90;;;;;20.10;101846.00;;;;2227335;26;20370;-57
2024/04/11 03:00:37;;;;;;;2.30;0.90;;;;;20.10;101859.00;;;;2218395;26;20824;-57
2024/04/11 03:01:38;;;;;;;2.47;0.80;;;;;20.10;101861.00;;;;2208681;26;20298;-57
2024/04/11 03:02:38;;;;;;;2.07;0.83;;;;;20.10;101858.00;;;;2222099;26;20246;-57
2024/04/11 03:03:38;;;;;;;2.00;0.93;;;;;20.10;101864.00;;;;2218986;26;20750;-58
2024/04/11 03:04:39;;;;;;;2.73;1.00;;;;;20.10;101860.00;;;;2218344;26;20577;-57
2024/04/11 03:05:39;;;;;;;1.80;0.80;;;;;19.70;101858.00;;;;2212508;26;20384;-58
2024/04/11 03:06:40;;;;;;;2.40;0.80;;;;;20.10;101858.00;;;;2225083;26;20324;-57
2024/04/11 03:07:42;;;;;;;1.97;1.00;;;;;20.10;101859.00;;;;2231534;26;20250;-58
2024/04/11 03:08:44;;;;;;;2.35;1.00;;;;;20.10;101860.00;;;;2228558;26;20343;-57
2024/04/11 03:09:44;;;;;;;3.03;1.00;;;;;20.10;101856.00;;;;2228787;26;20277;-57
2024/04/11 03:10:45;;;;;;;1.90;0.80;;;;;20.10;101860.00;;;;2206851;26;20293;-57
2024/04/11 03:11:45;;;;;;;2.20;0.87;;;;;20.10;101856.00;;;;2229074;26;20281;-57
2024/04/11 03:12:46;;;;;;;1.70;0.60;;;;;20.10;101861.00;;;;2217220;26;21009;-58
2024/04/11 03:13:46;;;;;;;2.27;0.80;;;;;20.10;101861.00;;;;2221773;26;20622;-57
2024/04/11 03:14:47;;;;;;;3.40;0.87;;;;;20.10;101858.00;;;;2218300;26;21127;-58
2024/04/11 03:15:58;;;;;;;2.37;0.70;;;;;20.10;101856.00;;;;2213766;26;20821;-57
2024/04/11 03:16:59;;;;;;;2.50;0.98;;;;;20.10;101860.00;;;;2219997;26;20356;-57
2024/04/11 03:17:59;;;;;;;2.43;0.80;;;;;20.10;101857.00;;;;2223046;26;20301;-57
2024/04/11 03:18:59;;;;;;;1.90;0.80;;;;;20.10;101860.00;;;;2217273;26;20259;-57
2024/04/11 03:20:00;;;;;;;1.70;0.70;;;;;20.10;101860.00;;;;2217737;26;20267;-57
2024/04/11 03:21:00;;;;;;;2.80;0.93;;;;;20.10;101854.00;;;;2201779;26;20954;-57
2024/04/11 03:22:00;;;;;;;2.20;0.87;;;;;20.10;101869.00;;;;2216888;26;20651;-57
2024/04/11 03:23:01;;;;;;;3.13;0.80;;;;;20.10;101887.00;;;;2217785;26;20298;-57
2024/04/11 03:24:01;;;;;;;2.03;0.77;;;;;20.10;101860.00;;;;2225357;26;20769;-58
2024/04/11 03:25:04;;;;;;;2.37;1.07;;;;;20.10;101858.00;;;;2217867;26;20255;-57
2024/04/11 03:26:05;;;;;;;2.25;0.90;;;;;20.10;101857.00;;;;2218013;26;20287;-58
2024/04/11 03:27:07;;;;;;;1.80;0.70;;;;;20.10;101861.00;;;;2218768;26;20247;-57
2024/04/11 03:28:07;;;;;;;2.25;0.70;;;;;20.10;101863.00;;;;2217192;26;20840;-57
2024/04/11 03:29:08;;;;;;;2.33;1.00;;;;;20.10;101858.00;;;;2217829;26;20255;-57
2024/04/11 03:30:08;;;;;;;2.20;0.70;;;;;20.10;101871.00;;;;2224673;26;21510;-58
2024/04/11 03:31:13;;;;;;;3.40;0.90;;;;;20.10;101854.00;;;;2215123;26;20357;-57
2024/04/11 03:32:13;;;;;;;1.95;0.75;;;;;20.10;101855.00;;;;2230689;26;21190;-57
2024/04/11 03:33:13;;;;;;;1.83;0.70;;;;;20.00;101860.00;;;;2230200;26;20246;-57
2024/04/11 03:34:14;;;;;;;2.40;0.80;;;;;20.00;101862.00;;;;2222320;26;20251;-58
2024/04/11 03:35:14;;;;;;;2.33;0.80;;;;;20.00;101858.00;;;;2217422;26;20264;-58
2024/04/11 03:36:15;;;;;;;2.23;0.70;;;;;20.10;101860.00;;;;2204548;26;20292;-58
2024/04/11 03:37:15;;;;;;;2.10;0.80;;;;;20.10;101856.00;;;;2218768;26;20247;-58
2024/04/11 03:38:16;;;;;;;1.83;0.73;;;;;20.10;101863.00;;;;2221854;26;20256;-58
2024/04/11 03:39:17;;;;;;;3.28;0.90;;;;;20.10;101852.00;;;;2217955;26;20255;-57
2024/04/11 03:40:17;;;;;;;1.70;0.70;;;;;20.10;101869.00;;;;2228228;26;20290;-57
2024/04/11 03:41:18;;;;;;;1.93;0.80;;;;;20.10;101858.00;;;;2210802;26;20259;-57
2024/04/11 03:42:19;;;;;;;1.95;0.80;;;;;20.10;101862.00;;;;2217319;26;20251;-58
2024/04/11 03:43:19;;;;;;;3.47;1.37;;;;;20.00;101853.00;;;;2228882;26;21099;-57
2024/04/11 03:44:19;;;;;;;2.67;0.83;;;;;20.00;101856.00;;;;2220758;26;20306;-59
2024/04/11 03:45:23;;;;;;;2.43;0.80;;;;;20.10;101857.00;;;;2221213;26;20290;-57
2024/04/11 03:46:23;;;;;;;2.47;0.90;;;;;20.10;101849.00;;;;2216589;26;20258;-58
2024/04/11 03:47:24;;;;;;;2.93;0.90;;;;;20.10;101849.00;;;;2228792;26;20258;-57
2024/04/11 03:48:25;;;;;;;1.83;0.80;;;;;20.10;101847.00;;;;2219863;26;21444;-58
2024/04/11 03:49:25;;;;;;;1.73;0.77;;;;;20.10;101839.00;;;;2221759;26;20250;-57
2024/04/11 03:50:28;;;;;;;1.70;0.60;;;;;20.10;101841.00;;;;2230009;26;20464;-57
2024/04/11 03:51:33;;;;;;;3.13;0.90;;;;;20.10;101835.00;;;;2208289;26;20339;-58
2024/04/11 03:52:35;;;;;;;2.58;0.90;;;;;20.10;101859.00;;;;2223700;26;20352;-58
2024/04/11 03:53:35;;;;;;;2.20;0.70;;;;;20.10;101831.00;;;;2218105;26;20275;-58
2024/04/11 03:54:37;;;;;;;1.90;0.90;;;;;20.00;101830.00;;;;2218866;26;20247;-58
2024/04/11 03:55:41;;;;;;;2.00;0.93;;;;;20.10;101831.00;;;;2222923;26;20668;-57
2024/04/11 03:56:41;;;;;;;2.13;1.00;;;;;20.10;101831.00;;;;2212796;26;20619;-57
2024/04/11 03:57:42;;;;;;;2.23;1.00;;;;;20.10;101832.00;;;;2217849;26;20252;-58
2024/04/11 03:58:42;;;;;;;2.23;0.60;;;;;20.00;101828.00;;;;2218498;26;20267;-58
2024/04/11 03:59:42;;;;;;;3.57;0.87;;;;;20.00;101826.00;;;;2230583;26;20254;-57
2024/04/11 04:00:46;;;;;;;2.10;0.93;;;;;20.00;101832.00;;;;2223811;26;20637;-60
2024/04/11 04:01:47;;;;;;;2.15;0.90;;;;;20.00;101833.00;;;;2216866;26;20260;-58
2024/04/11 04:02:47;;;;;;;3.15;1.35;;;;;20.00;101835.00;;;;2216813;26;20338;-58
2024/04/11 04:03:49;;;;;;;1.80;0.90;;;;;20.00;101832.00;;;;2219651;26;20286;-57
2024/04/11 04:04:49;;;;;;;2.35;0.80;;;;;20.00;101827.00;;;;2221015;26;20720;-57
2024/04/11 04:05:51;;;;;;;2.30;1.00;;;;;20.00;101823.00;;;;2210560;26;20259;-58
2024/04/11 04:06:51;;;;;;;3.72;1.00;;;;;20.00;101841.00;;;;2219323;26;20353;-57
2024/04/11 04:07:52;;;;;;;2.00;0.80;;;;;20.10;101827.00;;;;2216956;26;20748;-58
2024/04/11 04:08:54;;;;;;;1.73;0.68;;;;;20.00;101831.00;;;;2216955;26;20346;-57
2024/04/11 04:09:56;;;;;;;2.50;0.70;;;;;20.00;101838.00;;;;2222348;26;20514;-57
2024/04/11 04:10:56;;;;;;;2.10;0.68;;;;;20.00;101836.00;;;;2212563;26;20292;-58
2024/04/11 04:11:56;;;;;;;2.00;0.53;;;;;20.00;101831.00;;;;2228345;26;20309;-57
2024/04/11 04:12:58;;;;;;;1.90;0.80;;;;;20.00;101827.00;;;;2220063;26;20312;-57
2024/04/11 04:13:58;;;;;;;2.17;0.70;;;;;20.10;101823.00;;;;2233381;26;20266;-57
2024/04/11 04:14:59;;;;;;;1.80;0.70;;;;;20.00;101824.00;;;;2231099;26;20251;-57
2024/04/11 04:16:00;;;;;;;2.50;0.80;;;;;20.00;101822.00;;;;2218908;26;20374;-57
2024/04/11 04:17:01;;;;;;;2.03;0.88;;;;;20.00;101825.00;;;;2225170;26;20294;-57
2024/04/11 04:18:03;;;;;;;4.03;0.80;;;;;20.00;101818.00;;;;2223113;26;20267;-57
2024/04/11 04:19:03;;;;;;;2.58;0.80;;;;;20.00;101823.00;;;;2225406;26;20254;-57
2024/04/11 04:20:04;;;;;;;2.37;0.70;;;;;20.00;101826.00;;;;2228037;26;20294;-57
2024/04/11 04:21:04;;;;;;;2.00;0.87;;;;;20.10;101821.00;;;;2208693;26;20732;-57
2024/04/11 04:22:08;;;;;;;2.27;0.80;;;;;20.00;101823.00;;;;2222608;26;21001;-57
2024/04/11 04:23:10;;;;;;;2.20;0.88;;;;;20.00;101818.00;;;;2225014;26;20608;-57
2024/04/11 04:24:10;;;;;;;1.90;0.93;;;;;20.00;101826.00;;;;2219335;26;20347;-57
2024/04/11 04:25:14;;;;;;;1.80;0.83;;;;;20.00;101821.00;;;;2221071;26;20369;-57
2024/04/11 04:26:20;;;;;;;2.17;0.90;;;;;20.00;101828.00;;;;2215808;26;20813;-60
2024/04/11 04:27:21;;;;;;;3.20;0.80;;;;;20.00;101836.00;;;;2222174;26;20784;-57
2024/04/11 04:28:21;;;;;;;3.05;0.70;;;;;20.00;101819.00;;;;2231349;26;20933;-57
2024/04/11 04:29:22;;;;;;;1.90;0.80;;;;;20.00;101829.00;;;;2222477;26;20341;-57
2024/04/11 04:30:22;;;;;;;1.83;0.50;;;;;20.00;101819.00;;;;2229487;26;20254;-58
2024/04/11 04:31:30;;;;;;;2.30;0.63;;;;;19.70;101820.00;;;;2211901;26;20260;-58
2024/04/11 04:32:31;;;;;;;2.10;0.88;;;;;20.00;101823.00;;;;2220932;26;20311;-57
2024/04/11 04:33:32;;;;;;;2.90;0.77;;;;;20.00;101820.00;;;;2232211;26;20262;-58
2024/04/11 04:34:34;;;;;;;2.27;1.10;;;;;20.00;101823.00;;;;2225633;26;20266;-57
2024/04/11 04:35:34;;;;;;;3.55;0.70;;;;;20.00;101820.00;;;;2218684;26;20255;-57
2024/04/11 04:36:40;;;;;;;1.60;0.50;;;;;20.00;101823.00;;;;2208637;26;20293;-57
2024/04/11 04:37:40;;;;;;;2.20;1.00;;;;;20.00;101825.00;;;;2218927;26;20251;-58
2024/04/11 04:38:41;;;;;;;2.27;1.03;;;;;20.00;101819.00;;;;2233272;26;20745;-58
2024/04/11 04:39:42;;;;;;;1.75;0.70;;;;;20.00;101818.00;;;;2222342;26;20303;-57
2024/04/11 04:40:42;;;;;;;1.87;0.80;;;;;20.00;101815.00;;;;2219505;26;20637;-57
2024/04/11 04:41:43;;;;;;;2.17;0.70;;;;;20.00;101816.00;;;;2216027;26;20270;-57
2024/04/11 04:42:43;;;;;;;2.10;0.82;;;;;20.00;101818.00;;;;2217363;26;20252;-57
2024/04/11 04:43:45;;;;;;;2.17;0.60;;;;;20.00;101821.00;;;;2218073;26;20243;-58
2024/04/11 04:44:46;;;;;;;2.40;0.80;;;;;20.00;101820.00;;;;2221790;26;20319;-61
2024/04/11 04:45:49;;;;;;;2.28;0.80;;;;;20.00;101811.00;;;;2221684;26;20297;-58
2024/04/11 04:46:49;;;;;;;1.80;0.68;;;;;20.00;101810.00;;;;2222074;26;20259;-57
2024/04/11 04:47:52;;;;;;;2.00;0.80;;;;;20.00;101818.00;;;;2216883;26;20584;-58
2024/04/11 04:48:52;;;;;;;2.75;0.98;;;;;20.00;101812.00;;;;2230730;26;20364;-58
2024/04/11 04:49:53;;;;;;;2.57;0.90;;;;;20.00;101813.00;;;;2230814;26;20266;-58
2024/04/11 04:50:53;;;;;;;1.80;0.67;;;;;20.00;101809.00;;;;2210071;26;20309;-57
2024/04/11 04:51:54;;;;;;;1.80;0.67;;;;;20.00;101810.00;;;;2228571;26;20360;-58
2024/04/11 04:52:54;;;;;;;2.03;0.67;;;;;20.00;101811.00;;;;2226673;26;20575;-57
2024/04/11 04:53:56;;;;;;;2.73;0.60;;;;;19.60;101813.00;;;;2220071;26;21176;-57
2024/04/11 04:54:57;;;;;;;2.00;0.70;;;;;20.00;101808.00;;;;2219230;26;20474;-58
2024/04/11 04:55:57;;;;;;;3.20;0.70;;;;;20.00;101807.00;;;;2214856;26;20293;-57
2024/04/11 04:56:58;;;;;;;2.23;0.80;;;;;20.00;101811.00;;;;2232624;26;20254;-57
2024/04/11 04:57:59;;;;;;;1.70;0.60;;;;;20.00;101817.00;;;;2236071;26;21203;-58
2024/04/11 04:58:59;;;;;;;2.10;0.83;;;;;20.00;101804.00;;;;2214573;26;20291;-57
2024/04/11 05:00:00;;;;;;;1.70;0.77;;;;;20.00;101820.00;;;;2218746;26;20247;-57
2024/04/11 05:01:00;;;;;;;2.10;0.70;;;;;20.00;101801.00;;;;2208867;26;20739;-57
2024/04/11 05:02:03;;;;;;;2.27;0.70;;;;;20.00;101800.00;;;;2246097;26;20392;-57
2024/04/11 05:03:08;;;;;;;2.45;0.77;;;;;20.00;101808.00;;;;2237275;26;20296;-58